sensor_id;sensor_type;location;lat;lon;timestamp;temperature;humidity
15455;DHT22;21057;51.024;7.540;2023-04-26T00:01:05;5.50;99.90
15455;DHT22;21057;51.024;7.540;2023-04-26T00:03:33;5.40;99.90
15455;DHT22;21057;51.024;7.540;2023-04-26T00:06:00;5.30;99.90
15455;DHT22;21057;51.024;7.540;2023-04-26T00:08:30;5.30;99.90
15455;DHT22;21057;51.024;7.540;2023-04-26T00:10:56;5.40;99.90
15455;DHT22;21057;51.024;7.540;2023-04-26T00:13:23;5.40;99.90
15455;DHT22;21057;51.024;7.540;2023-04-26T00:15:52;5.40;99.90
15455;DHT22;21057;51.024;7.540;2023-04-26T00:18:19;5.50;99.90
15455;DHT22;21057;51.024;7.540;2023-04-26T00:20:46;5.40;99.90
15455;DHT22;21057;51.024;7.540;2023-04-26T00:23:13;5.20;99.90
15455;DHT22;21057;51.024;7.540;2023-04-26T00:25:40;5.10;99.90
15455;DHT22;21057;51.024;7.540;2023-04-26T00:28:08;5.00;99.90
15455;DHT22;21057;51.024;7.540;2023-04-26T00:30:42;4.90;99.90
15455;DHT22;21057;51.024;7.540;2023-04-26T00:33:13;5.00;99.90
15455;DHT22;21057;51.024;7.540;2023-04-26T00:35:42;5.10;99.90
15455;DHT22;21057;51.024;7.540;2023-04-26T00:38:09;5.00;99.90
15455;DHT22;21057;51.024;7.540;2023-04-26T00:40:49;4.90;99.90
15455;DHT22;21057;51.024;7.540;2023-04-26T00:43:27;4.90;99.90
15455;DHT22;21057;51.024;7.540;2023-04-26T00:45:54;4.90;99.90
15455;DHT22;21057;51.024;7.540;2023-04-26T00:48:22;4.70;99.90
15455;DHT22;21057;51.024;7.540;2023-04-26T00:50:49;4.80;99.90
15455;DHT22;21057;51.024;7.540;2023-04-26T00:53:16;4.70;99.90
15455;DHT22;21057;51.024;7.540;2023-04-26T00:55:47;4.70;99.90
15455;DHT22;21057;51.024;7.540;2023-04-26T00:58:15;4.60;99.90
15455;DHT22;21057;51.024;7.540;2023-04-26T01:00:49;4.60;99.90
15455;DHT22;21057;51.024;7.540;2023-04-26T01:03:16;4.40;99.90
15455;DHT22;21057;51.024;7.540;2023-04-26T01:05:44;4.40;99.90
15455;DHT22;21057;51.024;7.540;2023-04-26T01:08:12;4.30;99.90
15455;DHT22;21057;51.024;7.540;2023-04-26T01:10:42;4.20;99.90
15455;DHT22;21057;51.024;7.540;2023-04-26T01:13:10;4.20;99.90
15455;DHT22;21057;51.024;7.540;2023-04-26T01:15:42;4.10;99.90
15455;DHT22;21057;51.024;7.540;2023-04-26T01:18:09;4.10;99.90
15455;DHT22;21057;51.024;7.540;2023-04-26T01:20:47;4.10;99.90
15455;DHT22;21057;51.024;7.540;2023-04-26T01:23:17;4.00;99.90
15455;DHT22;21057;51.024;7.540;2023-04-26T01:25:44;4.00;99.90
15455;DHT22;21057;51.024;7.540;2023-04-26T01:28:19;3.80;99.90
15455;DHT22;21057;51.024;7.540;2023-04-26T01:30:53;3.70;99.90
15455;DHT22;21057;51.024;7.540;2023-04-26T01:33:20;3.70;99.90
15455;DHT22;21057;51.024;7.540;2023-04-26T01:35:47;3.70;99.90
15455;DHT22;21057;51.024;7.540;2023-04-26T01:38:13;3.50;99.90
15455;DHT22;21057;51.024;7.540;2023-04-26T01:40:43;3.60;99.90
15455;DHT22;21057;51.024;7.540;2023-04-26T01:43:10;3.70;99.90
15455;DHT22;21057;51.024;7.540;2023-04-26T01:45:39;3.60;99.90
15455;DHT22;21057;51.024;7.540;2023-04-26T01:48:06;3.60;99.90
15455;DHT22;21057;51.024;7.540;2023-04-26T01:50:37;3.70;99.90
15455;DHT22;21057;51.024;7.540;2023-04-26T01:53:10;3.60;99.90
15455;DHT22;21057;51.024;7.540;2023-04-26T01:55:36;3.50;99.90
15455;DHT22;21057;51.024;7.540;2023-04-26T01:58:05;3.50;99.90
15455;DHT22;21057;51.024;7.540;2023-04-26T02:00:33;3.50;99.90
15455;DHT22;21057;51.024;7.540;2023-04-26T02:02:59;3.50;99.90
15455;DHT22;21057;51.024;7.540;2023-04-26T02:05:26;3.40;99.90
15455;DHT22;21057;51.024;7.540;2023-04-26T02:07:53;3.30;99.90
15455;DHT22;21057;51.024;7.540;2023-04-26T02:10:20;3.30;99.90
15455;DHT22;21057;51.024;7.540;2023-04-26T02:12:47;3.30;99.90
15455;DHT22;21057;51.024;7.540;2023-04-26T02:15:15;3.30;99.90
15455;DHT22;21057;51.024;7.540;2023-04-26T02:17:42;3.30;99.90
15455;DHT22;21057;51.024;7.540;2023-04-26T02:20:10;3.20;99.90
15455;DHT22;21057;51.024;7.540;2023-04-26T02:22:37;3.30;99.90
15455;DHT22;21057;51.024;7.540;2023-04-26T02:25:04;3.40;99.90
15455;DHT22;21057;51.024;7.540;2023-04-26T02:27:31;3.40;99.90
15455;DHT22;21057;51.024;7.540;2023-04-26T02:30:00;3.40;99.90
15455;DHT22;21057;51.024;7.540;2023-04-26T02:32:28;3.30;99.90
15455;DHT22;21057;51.024;7.540;2023-04-26T02:34:55;3.30;99.90
15455;DHT22;21057;51.024;7.540;2023-04-26T02:37:22;3.30;99.90
15455;DHT22;21057;51.024;7.540;2023-04-26T02:39:49;3.20;99.90
15455;DHT22;21057;51.024;7.540;2023-04-26T02:42:16;3.20;99.90
15455;DHT22;21057;51.024;7.540;2023-04-26T02:44:43;3.20;99.90
15455;DHT22;21057;51.024;7.540;2023-04-26T02:47:10;3.10;99.90
15455;DHT22;21057;51.024;7.540;2023-04-26T02:49:38;3.00;99.90
15455;DHT22;21057;51.024;7.540;2023-04-26T02:52:05;3.00;99.90
15455;DHT22;21057;51.024;7.540;2023-04-26T02:54:32;3.00;99.90
15455;DHT22;21057;51.024;7.540;2023-04-26T02:57:01;3.00;99.90
15455;DHT22;21057;51.024;7.540;2023-04-26T02:59:28;2.90;99.90
15455;DHT22;21057;51.024;7.540;2023-04-26T03:01:55;2.90;99.90
15455;DHT22;21057;51.024;7.540;2023-04-26T03:04:22;2.90;99.90
15455;DHT22;21057;51.024;7.540;2023-04-26T03:06:50;2.90;99.90
15455;DHT22;21057;51.024;7.540;2023-04-26T03:09:17;2.90;99.90
15455;DHT22;21057;51.024;7.540;2023-04-26T03:11:45;2.90;99.90
15455;DHT22;21057;51.024;7.540;2023-04-26T03:14:11;2.90;99.90
15455;DHT22;21057;51.024;7.540;2023-04-26T03:16:42;2.90;99.90
15455;DHT22;21057;51.024;7.540;2023-04-26T03:19:09;2.80;99.90
15455;DHT22;21057;51.024;7.540;2023-04-26T03:21:36;2.70;99.90
15455;DHT22;21057;51.024;7.540;2023-04-26T03:24:05;2.80;99.90
15455;DHT22;21057;51.024;7.540;2023-04-26T03:26:32;2.80;99.90
15455;DHT22;21057;51.024;7.540;2023-04-26T03:28:59;2.80;99.90
15455;DHT22;21057;51.024;7.540;2023-04-26T03:31:32;2.70;99.90
15455;DHT22;21057;51.024;7.540;2023-04-26T03:33:59;2.60;99.90
15455;DHT22;21057;51.024;7.540;2023-04-26T03:36:26;2.60;99.90
15455;DHT22;21057;51.024;7.540;2023-04-26T03:38:54;2.60;99.90
15455;DHT22;21057;51.024;7.540;2023-04-26T03:41:23;2.60;99.90
15455;DHT22;21057;51.024;7.540;2023-04-26T03:43:50;2.60;99.90
15455;DHT22;21057;51.024;7.540;2023-04-26T03:46:17;2.60;99.90
15455;DHT22;21057;51.024;7.540;2023-04-26T03:48:48;2.60;99.90
15455;DHT22;21057;51.024;7.540;2023-04-26T03:51:15;2.60;99.90
15455;DHT22;21057;51.024;7.540;2023-04-26T03:53:42;2.50;99.90
15455;DHT22;21057;51.024;7.540;2023-04-26T03:56:11;2.50;99.90
15455;DHT22;21057;51.024;7.540;2023-04-26T03:58:39;2.60;99.90
15455;DHT22;21057;51.024;7.540;2023-04-26T04:01:07;2.60;99.90
15455;DHT22;21057;51.024;7.540;2023-04-26T04:03:34;2.50;99.90
15455;DHT22;21057;51.024;7.540;2023-04-26T04:06:01;2.50;99.90
15455;DHT22;21057;51.024;7.540;2023-04-26T04:08:28;2.40;99.90
15455;DHT22;21057;51.024;7.540;2023-04-26T04:10:56;2.40;99.90
15455;DHT22;21057;51.024;7.540;2023-04-26T04:13:23;2.50;99.90
15455;DHT22;21057;51.024;7.540;2023-04-26T04:15:51;2.50;99.90
15455;DHT22;21057;51.024;7.540;2023-04-26T04:18:18;2.40;99.90
15455;DHT22;21057;51.024;7.540;2023-04-26T04:20:45;2.30;99.90
15455;DHT22;21057;51.024;7.540;2023-04-26T04:23:12;2.30;99.90
15455;DHT22;21057;51.024;7.540;2023-04-26T04:25:39;2.20;99.90
15455;DHT22;21057;51.024;7.540;2023-04-26T04:28:06;2.20;99.90
15455;DHT22;21057;51.024;7.540;2023-04-26T04:30:33;2.30;99.90
15455;DHT22;21057;51.024;7.540;2023-04-26T04:33:01;2.20;99.90
15455;DHT22;21057;51.024;7.540;2023-04-26T04:35:32;2.40;99.90
15455;DHT22;21057;51.024;7.540;2023-04-26T04:37:59;2.50;99.90
15455;DHT22;21057;51.024;7.540;2023-04-26T04:40:27;2.50;99.90
15455;DHT22;21057;51.024;7.540;2023-04-26T04:42:54;2.60;99.90
15455;DHT22;21057;51.024;7.540;2023-04-26T04:45:21;2.60;99.90
15455;DHT22;21057;51.024;7.540;2023-04-26T04:47:48;2.50;99.90
15455;DHT22;21057;51.024;7.540;2023-04-26T04:50:16;2.40;99.90
15455;DHT22;21057;51.024;7.540;2023-04-26T04:52:43;2.50;99.90
15455;DHT22;21057;51.024;7.540;2023-04-26T04:55:10;2.60;99.90
15455;DHT22;21057;51.024;7.540;2023-04-26T04:57:37;2.60;99.90
15455;DHT22;21057;51.024;7.540;2023-04-26T05:00:07;2.80;99.90
15455;DHT22;21057;51.024;7.540;2023-04-26T05:02:35;2.90;99.90
15455;DHT22;21057;51.024;7.540;2023-04-26T05:05:02;2.90;99.90
15455;DHT22;21057;51.024;7.540;2023-04-26T05:07:31;2.90;99.90
15455;DHT22;21057;51.024;7.540;2023-04-26T05:10:07;3.00;99.90
15455;DHT22;21057;51.024;7.540;2023-04-26T05:12:34;3.00;99.90
15455;DHT22;21057;51.024;7.540;2023-04-26T05:15:01;3.10;99.90
15455;DHT22;21057;51.024;7.540;2023-04-26T05:17:28;3.10;99.90
15455;DHT22;21057;51.024;7.540;2023-04-26T05:19:57;3.30;99.90
15455;DHT22;21057;51.024;7.540;2023-04-26T05:22:24;3.30;99.90
15455;DHT22;21057;51.024;7.540;2023-04-26T05:24:52;3.40;99.90
15455;DHT22;21057;51.024;7.540;2023-04-26T05:27:18;3.40;99.90
15455;DHT22;21057;51.024;7.540;2023-04-26T05:29:46;3.40;99.90
15455;DHT22;21057;51.024;7.540;2023-04-26T05:32:13;3.50;99.90
15455;DHT22;21057;51.024;7.540;2023-04-26T05:34:41;3.60;99.90
15455;DHT22;21057;51.024;7.540;2023-04-26T05:37:08;3.70;99.90
15455;DHT22;21057;51.024;7.540;2023-04-26T05:39:36;3.70;99.90
15455;DHT22;21057;51.024;7.540;2023-04-26T05:42:04;3.90;99.90
15455;DHT22;21057;51.024;7.540;2023-04-26T05:44:31;4.00;99.90
15455;DHT22;21057;51.024;7.540;2023-04-26T05:46:58;4.10;99.90
15455;DHT22;21057;51.024;7.540;2023-04-26T05:49:25;4.20;99.90
15455;DHT22;21057;51.024;7.540;2023-04-26T05:51:51;4.20;99.90
15455;DHT22;21057;51.024;7.540;2023-04-26T05:54:18;4.20;99.90
15455;DHT22;21057;51.024;7.540;2023-04-26T05:56:45;4.20;99.90
15455;DHT22;21057;51.024;7.540;2023-04-26T05:59:13;4.40;99.90
15455;DHT22;21057;51.024;7.540;2023-04-26T06:01:41;4.40;99.90
15455;DHT22;21057;51.024;7.540;2023-04-26T06:04:08;4.30;99.90
15455;DHT22;21057;51.024;7.540;2023-04-26T06:06:35;4.40;99.90
15455;DHT22;21057;51.024;7.540;2023-04-26T06:09:20;4.70;99.90
15455;DHT22;21057;51.024;7.540;2023-04-26T06:11:47;4.80;99.90
15455;DHT22;21057;51.024;7.540;2023-04-26T06:14:15;4.80;99.90
15455;DHT22;21057;51.024;7.540;2023-04-26T06:16:42;5.00;99.90
15455;DHT22;21057;51.024;7.540;2023-04-26T06:19:09;5.10;99.90
15455;DHT22;21057;51.024;7.540;2023-04-26T06:21:38;5.20;99.90
15455;DHT22;21057;51.024;7.540;2023-04-26T06:24:06;5.30;99.90
15455;DHT22;21057;51.024;7.540;2023-04-26T06:26:32;5.30;99.90
15455;DHT22;21057;51.024;7.540;2023-04-26T06:29:06;5.50;99.90
15455;DHT22;21057;51.024;7.540;2023-04-26T06:31:34;5.60;99.90
15455;DHT22;21057;51.024;7.540;2023-04-26T06:34:01;5.70;99.90
15455;DHT22;21057;51.024;7.540;2023-04-26T06:36:28;6.10;99.90
15455;DHT22;21057;51.024;7.540;2023-04-26T06:38:55;6.30;99.90
15455;DHT22;21057;51.024;7.540;2023-04-26T06:41:27;6.30;99.90
15455;DHT22;21057;51.024;7.540;2023-04-26T06:43:56;6.40;99.90
15455;DHT22;21057;51.024;7.540;2023-04-26T06:46:24;6.40;99.90
15455;DHT22;21057;51.024;7.540;2023-04-26T06:49:01;6.40;99.90
15455;DHT22;21057;51.024;7.540;2023-04-26T06:51:30;6.70;99.90
15455;DHT22;21057;51.024;7.540;2023-04-26T06:53:57;7.00;99.90
15455;DHT22;21057;51.024;7.540;2023-04-26T06:56:25;7.20;99.90
15455;DHT22;21057;51.024;7.540;2023-04-26T06:59:00;7.30;99.90
15455;DHT22;21057;51.024;7.540;2023-04-26T07:01:28;7.60;99.90
15455;DHT22;21057;51.024;7.540;2023-04-26T07:03:58;7.90;99.90
15455;DHT22;21057;51.024;7.540;2023-04-26T07:06:41;8.40;99.90
15455;DHT22;21057;51.024;7.540;2023-04-26T07:09:08;8.20;99.90
15455;DHT22;21057;51.024;7.540;2023-04-26T07:11:35;8.40;99.90
15455;DHT22;21057;51.024;7.540;2023-04-26T07:14:03;8.50;99.90
15455;DHT22;21057;51.024;7.540;2023-04-26T07:16:35;8.70;99.90
15455;DHT22;21057;51.024;7.540;2023-04-26T07:19:01;8.80;99.90
15455;DHT22;21057;51.024;7.540;2023-04-26T07:21:34;8.60;99.90
15455;DHT22;21057;51.024;7.540;2023-04-26T07:24:04;8.90;99.90
15455;DHT22;21057;51.024;7.540;2023-04-26T07:26:34;9.00;99.90
15455;DHT22;21057;51.024;7.540;2023-04-26T07:29:02;8.70;99.90
15455;DHT22;21057;51.024;7.540;2023-04-26T07:31:29;8.50;99.90
15455;DHT22;21057;51.024;7.540;2023-04-26T07:33:57;8.50;99.90
15455;DHT22;21057;51.024;7.540;2023-04-26T07:36:28;8.80;99.90
15455;DHT22;21057;51.024;7.540;2023-04-26T07:38:59;9.10;99.90
15455;DHT22;21057;51.024;7.540;2023-04-26T07:41:27;9.10;99.90
15455;DHT22;21057;51.024;7.540;2023-04-26T07:43:54;8.60;99.90
15455;DHT22;21057;51.024;7.540;2023-04-26T07:46:21;8.40;99.90
15455;DHT22;21057;51.024;7.540;2023-04-26T07:48:47;8.40;99.90
15455;DHT22;21057;51.024;7.540;2023-04-26T07:51:14;8.60;99.90
15455;DHT22;21057;51.024;7.540;2023-04-26T07:53:41;8.80;99.90
15455;DHT22;21057;51.024;7.540;2023-04-26T07:56:08;8.90;99.90
15455;DHT22;21057;51.024;7.540;2023-04-26T07:58:37;9.20;99.90
15455;DHT22;21057;51.024;7.540;2023-04-26T08:01:04;9.10;99.90
15455;DHT22;21057;51.024;7.540;2023-04-26T08:03:32;9.10;99.90
15455;DHT22;21057;51.024;7.540;2023-04-26T08:05:59;9.60;99.90
15455;DHT22;21057;51.024;7.540;2023-04-26T08:08:27;9.60;99.90
15455;DHT22;21057;51.024;7.540;2023-04-26T08:11:13;9.80;99.90
15455;DHT22;21057;51.024;7.540;2023-04-26T08:13:45;9.80;99.90
15455;DHT22;21057;51.024;7.540;2023-04-26T08:16:13;9.50;99.90
15455;DHT22;21057;51.024;7.540;2023-04-26T08:18:40;10.10;99.90
15455;DHT22;21057;51.024;7.540;2023-04-26T08:21:07;10.40;99.90
15455;DHT22;21057;51.024;7.540;2023-04-26T08:23:35;10.60;99.90
15455;DHT22;21057;51.024;7.540;2023-04-26T08:26:02;10.60;99.90
15455;DHT22;21057;51.024;7.540;2023-04-26T08:28:29;10.50;99.90
15455;DHT22;21057;51.024;7.540;2023-04-26T08:30:57;11.10;99.90
15455;DHT22;21057;51.024;7.540;2023-04-26T08:33:24;11.70;99.90
15455;DHT22;21057;51.024;7.540;2023-04-26T08:35:51;12.30;98.40
15455;DHT22;21057;51.024;7.540;2023-04-26T08:38:18;12.40;98.10
15455;DHT22;21057;51.024;7.540;2023-04-26T08:40:47;11.80;97.30
15455;DHT22;21057;51.024;7.540;2023-04-26T08:43:14;11.10;99.20
15455;DHT22;21057;51.024;7.540;2023-04-26T08:45:48;11.20;99.40
15455;DHT22;21057;51.024;7.540;2023-04-26T08:48:17;10.90;98.20
15455;DHT22;21057;51.024;7.540;2023-04-26T08:50:45;11.00;99.40
15455;DHT22;21057;51.024;7.540;2023-04-26T08:53:15;11.20;98.30
15455;DHT22;21057;51.024;7.540;2023-04-26T08:55:46;11.40;94.20
15455;DHT22;21057;51.024;7.540;2023-04-26T08:58:14;11.50;93.90
15455;DHT22;21057;51.024;7.540;2023-04-26T09:00:43;11.30;93.80
15455;DHT22;21057;51.024;7.540;2023-04-26T09:03:14;11.50;94.20
15455;DHT22;21057;51.024;7.540;2023-04-26T09:05:43;11.70;93.80
15455;DHT22;21057;51.024;7.540;2023-04-26T09:08:15;11.50;95.10
15455;DHT22;21057;51.024;7.540;2023-04-26T09:10:42;11.90;96.60
15455;DHT22;21057;51.024;7.540;2023-04-26T09:13:12;12.10;95.00
15455;DHT22;21057;51.024;7.540;2023-04-26T09:15:40;12.00;96.40
15455;DHT22;21057;51.024;7.540;2023-04-26T09:18:18;11.90;95.20
15455;DHT22;21057;51.024;7.540;2023-04-26T09:21:01;11.60;94.00
15455;DHT22;21057;51.024;7.540;2023-04-26T09:23:32;10.70;94.00
15455;DHT22;21057;51.024;7.540;2023-04-26T09:26:20;10.40;95.10
15455;DHT22;21057;51.024;7.540;2023-04-26T09:28:50;10.50;95.60
15455;DHT22;21057;51.024;7.540;2023-04-26T09:31:38;10.70;95.00
15455;DHT22;21057;51.024;7.540;2023-04-26T09:34:06;10.90;95.10
15455;DHT22;21057;51.024;7.540;2023-04-26T09:36:47;11.00;94.10
15455;DHT22;21057;51.024;7.540;2023-04-26T09:39:29;11.20;94.50
15455;DHT22;21057;51.024;7.540;2023-04-26T09:41:57;11.00;93.90
15455;DHT22;21057;51.024;7.540;2023-04-26T09:44:25;10.80;94.40
15455;DHT22;21057;51.024;7.540;2023-04-26T09:47:03;10.80;94.90
15455;DHT22;21057;51.024;7.540;2023-04-26T09:49:31;10.40;95.70
15455;DHT22;21057;51.024;7.540;2023-04-26T09:52:05;10.20;97.20
15455;DHT22;21057;51.024;7.540;2023-04-26T09:54:44;10.10;96.60
15455;DHT22;21057;51.024;7.540;2023-04-26T09:57:15;10.00;96.00
15455;DHT22;21057;51.024;7.540;2023-04-26T09:59:44;9.40;96.10
15455;DHT22;21057;51.024;7.540;2023-04-26T10:02:18;9.70;96.70
15455;DHT22;21057;51.024;7.540;2023-04-26T10:04:48;9.90;95.40
15455;DHT22;21057;51.024;7.540;2023-04-26T10:07:22;10.00;94.60
15455;DHT22;21057;51.024;7.540;2023-04-26T10:09:51;10.10;95.40
15455;DHT22;21057;51.024;7.540;2023-04-26T10:12:28;10.60;95.30
15455;DHT22;21057;51.024;7.540;2023-04-26T10:14:55;11.10;93.90
15455;DHT22;21057;51.024;7.540;2023-04-26T10:17:32;11.30;93.80
15455;DHT22;21057;51.024;7.540;2023-04-26T10:19:59;11.90;94.50
15455;DHT22;21057;51.024;7.540;2023-04-26T10:22:32;13.10;93.50
15455;DHT22;21057;51.024;7.540;2023-04-26T10:25:01;14.20;90.40
15455;DHT22;21057;51.024;7.540;2023-04-26T10:27:50;15.50;89.30
15455;DHT22;21057;51.024;7.540;2023-04-26T10:30:20;16.50;84.90
15455;DHT22;21057;51.024;7.540;2023-04-26T10:38:35;15.80;73.80
15455;DHT22;21057;51.024;7.540;2023-04-26T10:41:28;14.80;72.70
15455;DHT22;21057;51.024;7.540;2023-04-26T10:47:28;12.80;80.90
15455;DHT22;21057;51.024;7.540;2023-04-26T10:50:05;12.20;86.00
15455;DHT22;21057;51.024;7.540;2023-04-26T10:53:04;11.80;84.90
15455;DHT22;21057;51.024;7.540;2023-04-26T10:55:41;11.70;86.20
15455;DHT22;21057;51.024;7.540;2023-04-26T10:58:25;11.30;85.00
15455;DHT22;21057;51.024;7.540;2023-04-26T11:01:06;11.70;90.40
15455;DHT22;21057;51.024;7.540;2023-04-26T11:04:00;11.30;82.50
15455;DHT22;21057;51.024;7.540;2023-04-26T11:06:46;11.40;87.70
15455;DHT22;21057;51.024;7.540;2023-04-26T11:09:35;11.70;87.50
15455;DHT22;21057;51.024;7.540;2023-04-26T11:12:06;11.90;86.80
15455;DHT22;21057;51.024;7.540;2023-04-26T11:14:44;12.10;84.50
15455;DHT22;21057;51.024;7.540;2023-04-26T11:17:13;12.30;87.60
15455;DHT22;21057;51.024;7.540;2023-04-26T11:19:40;12.50;87.00
15455;DHT22;21057;51.024;7.540;2023-04-26T11:22:10;13.20;81.70
15455;DHT22;21057;51.024;7.540;2023-04-26T11:24:36;14.20;82.30
15455;DHT22;21057;51.024;7.540;2023-04-26T11:27:08;15.00;77.30
15455;DHT22;21057;51.024;7.540;2023-04-26T11:29:41;15.30;73.60
15455;DHT22;21057;51.024;7.540;2023-04-26T11:32:10;15.10;72.20
15455;DHT22;21057;51.024;7.540;2023-04-26T11:34:38;14.40;74.20
15455;DHT22;21057;51.024;7.540;2023-04-26T11:37:06;14.30;76.30
15455;DHT22;21057;51.024;7.540;2023-04-26T11:39:34;14.60;75.60
15455;DHT22;21057;51.024;7.540;2023-04-26T11:42:12;15.00;71.70
15455;DHT22;21057;51.024;7.540;2023-04-26T11:44:39;15.00;72.60
15455;DHT22;21057;51.024;7.540;2023-04-26T11:47:07;15.30;73.20
15455;DHT22;21057;51.024;7.540;2023-04-26T11:49:35;14.70;68.90
15455;DHT22;21057;51.024;7.540;2023-04-26T11:52:21;14.30;71.40
15455;DHT22;21057;51.024;7.540;2023-04-26T11:54:48;13.90;73.20
15455;DHT22;21057;51.024;7.540;2023-04-26T11:57:17;13.30;72.50
15455;DHT22;21057;51.024;7.540;2023-04-26T12:00:15;13.40;74.10
15455;DHT22;21057;51.024;7.540;2023-04-26T12:03:08;13.40;75.20
15455;DHT22;21057;51.024;7.540;2023-04-26T12:05:36;13.50;76.00
15455;DHT22;21057;51.024;7.540;2023-04-26T12:08:09;13.20;76.30
15455;DHT22;21057;51.024;7.540;2023-04-26T12:10:45;13.10;75.50
15455;DHT22;21057;51.024;7.540;2023-04-26T12:13:15;13.40;78.20
15455;DHT22;21057;51.024;7.540;2023-04-26T12:15:42;14.20;78.40
15455;DHT22;21057;51.024;7.540;2023-04-26T12:18:29;14.60;75.20
15455;DHT22;21057;51.024;7.540;2023-04-26T12:20:57;14.70;72.60
15455;DHT22;21057;51.024;7.540;2023-04-26T12:23:46;14.60;72.90
15455;DHT22;21057;51.024;7.540;2023-04-26T12:26:13;14.80;74.90
15455;DHT22;21057;51.024;7.540;2023-04-26T12:28:42;15.40;70.80
15455;DHT22;21057;51.024;7.540;2023-04-26T12:31:10;15.70;71.30
15455;DHT22;21057;51.024;7.540;2023-04-26T12:33:38;15.90;69.50
15455;DHT22;21057;51.024;7.540;2023-04-26T12:36:07;15.90;70.90
15455;DHT22;21057;51.024;7.540;2023-04-26T12:38:35;16.00;70.90
15455;DHT22;21057;51.024;7.540;2023-04-26T12:41:03;16.80;68.90
15455;DHT22;21057;51.024;7.540;2023-04-26T12:43:30;17.60;65.30
15455;DHT22;21057;51.024;7.540;2023-04-26T12:46:04;17.90;63.60
15455;DHT22;21057;51.024;7.540;2023-04-26T12:48:31;16.80;63.10
15455;DHT22;21057;51.024;7.540;2023-04-26T12:50:58;17.80;62.80
15455;DHT22;21057;51.024;7.540;2023-04-26T12:53:26;17.80;63.90
15455;DHT22;21057;51.024;7.540;2023-04-26T12:55:54;18.70;63.70
15455;DHT22;21057;51.024;7.540;2023-04-26T12:58:21;18.60;59.70
15455;DHT22;21057;51.024;7.540;2023-04-26T13:00:49;17.30;59.20
15455;DHT22;21057;51.024;7.540;2023-04-26T13:03:18;16.20;59.20
15455;DHT22;21057;51.024;7.540;2023-04-26T13:05:45;14.50;66.40
15455;DHT22;21057;51.024;7.540;2023-04-26T13:08:12;14.20;69.60
15455;DHT22;21057;51.024;7.540;2023-04-26T13:10:39;13.60;68.50
15455;DHT22;21057;51.024;7.540;2023-04-26T13:13:07;13.70;74.50
15455;DHT22;21057;51.024;7.540;2023-04-26T13:15:34;14.10;71.10
15455;DHT22;21057;51.024;7.540;2023-04-26T13:18:01;14.10;70.60
15455;DHT22;21057;51.024;7.540;2023-04-26T13:20:29;14.50;68.80
15455;DHT22;21057;51.024;7.540;2023-04-26T13:22:56;15.40;66.30
15455;DHT22;21057;51.024;7.540;2023-04-26T13:25:30;15.60;65.10
15455;DHT22;21057;51.024;7.540;2023-04-26T13:27:57;16.10;66.60
15455;DHT22;21057;51.024;7.540;2023-04-26T13:30:23;16.90;67.40
15455;DHT22;21057;51.024;7.540;2023-04-26T13:32:50;17.20;67.50
15455;DHT22;21057;51.024;7.540;2023-04-26T13:35:24;17.60;63.90
15455;DHT22;21057;51.024;7.540;2023-04-26T13:37:53;17.70;62.80
15455;DHT22;21057;51.024;7.540;2023-04-26T13:40:20;17.80;60.90
15455;DHT22;21057;51.024;7.540;2023-04-26T13:42:47;16.70;60.20
15455;DHT22;21057;51.024;7.540;2023-04-26T13:45:18;16.30;61.10
15455;DHT22;21057;51.024;7.540;2023-04-26T13:47:45;15.80;63.30
15455;DHT22;21057;51.024;7.540;2023-04-26T13:50:11;16.50;61.40
15455;DHT22;21057;51.024;7.540;2023-04-26T13:52:38;17.20;65.30
15455;DHT22;21057;51.024;7.540;2023-04-26T13:55:07;17.70;57.40
15455;DHT22;21057;51.024;7.540;2023-04-26T13:57:34;17.80;58.90
15455;DHT22;21057;51.024;7.540;2023-04-26T14:00:01;18.00;56.40
15455;DHT22;21057;51.024;7.540;2023-04-26T14:02:29;18.40;62.20
15455;DHT22;21057;51.024;7.540;2023-04-26T14:05:03;18.70;59.20
15455;DHT22;21057;51.024;7.540;2023-04-26T14:07:31;18.60;57.80
15455;DHT22;21057;51.024;7.540;2023-04-26T14:09:57;18.20;56.10
15455;DHT22;21057;51.024;7.540;2023-04-26T14:12:29;18.40;58.40
15455;DHT22;21057;51.024;7.540;2023-04-26T14:14:56;18.00;57.00
15455;DHT22;21057;51.024;7.540;2023-04-26T14:17:24;17.90;57.60
15455;DHT22;21057;51.024;7.540;2023-04-26T14:19:53;17.70;58.40
15455;DHT22;21057;51.024;7.540;2023-04-26T14:22:20;17.70;54.30
15455;DHT22;21057;51.024;7.540;2023-04-26T14:24:47;17.70;58.80
15455;DHT22;21057;51.024;7.540;2023-04-26T14:27:14;18.00;59.30
15455;DHT22;21057;51.024;7.540;2023-04-26T14:29:42;18.70;58.20
15455;DHT22;21057;51.024;7.540;2023-04-26T14:32:09;17.90;55.10
15455;DHT22;21057;51.024;7.540;2023-04-26T14:34:36;16.90;56.30
15455;DHT22;21057;51.024;7.540;2023-04-26T14:37:03;16.70;55.60
15455;DHT22;21057;51.024;7.540;2023-04-26T14:39:31;16.40;56.70
15455;DHT22;21057;51.024;7.540;2023-04-26T14:41:58;16.30;57.30
15455;DHT22;21057;51.024;7.540;2023-04-26T14:44:25;16.70;57.10
15455;DHT22;21057;51.024;7.540;2023-04-26T14:46:53;16.90;59.30
15455;DHT22;21057;51.024;7.540;2023-04-26T14:49:20;17.10;56.90
15455;DHT22;21057;51.024;7.540;2023-04-26T14:51:48;16.10;56.10
15455;DHT22;21057;51.024;7.540;2023-04-26T14:54:14;15.90;59.20
15455;DHT22;21057;51.024;7.540;2023-04-26T14:56:42;15.10;60.20
15455;DHT22;21057;51.024;7.540;2023-04-26T14:59:09;14.30;60.70
15455;DHT22;21057;51.024;7.540;2023-04-26T15:01:36;13.80;62.60
15455;DHT22;21057;51.024;7.540;2023-04-26T15:04:06;14.30;62.70
15455;DHT22;21057;51.024;7.540;2023-04-26T15:06:33;14.60;62.80
15455;DHT22;21057;51.024;7.540;2023-04-26T15:09:00;14.90;65.30
15455;DHT22;21057;51.024;7.540;2023-04-26T15:11:35;15.50;62.40
15455;DHT22;21057;51.024;7.540;2023-04-26T15:14:02;14.90;60.90
15455;DHT22;21057;51.024;7.540;2023-04-26T15:16:29;15.00;62.20
15455;DHT22;21057;51.024;7.540;2023-04-26T15:18:56;15.60;59.90
15455;DHT22;21057;51.024;7.540;2023-04-26T15:21:24;15.60;60.30
15455;DHT22;21057;51.024;7.540;2023-04-26T15:23:57;15.80;60.50
15455;DHT22;21057;51.024;7.540;2023-04-26T15:26:24;16.40;63.40
15455;DHT22;21057;51.024;7.540;2023-04-26T15:28:51;16.80;59.40
15455;DHT22;21057;51.024;7.540;2023-04-26T15:31:20;16.70;56.60
15455;DHT22;21057;51.024;7.540;2023-04-26T15:33:52;16.50;59.00
15455;DHT22;21057;51.024;7.540;2023-04-26T15:36:23;15.90;57.30
15455;DHT22;21057;51.024;7.540;2023-04-26T15:38:52;15.50;59.10
15455;DHT22;21057;51.024;7.540;2023-04-26T15:41:19;15.30;58.90
15455;DHT22;21057;51.024;7.540;2023-04-26T15:43:46;15.10;59.40
15455;DHT22;21057;51.024;7.540;2023-04-26T15:46:14;14.70;63.20
15455;DHT22;21057;51.024;7.540;2023-04-26T15:48:41;14.70;60.80
15455;DHT22;21057;51.024;7.540;2023-04-26T15:51:08;14.90;60.00
15455;DHT22;21057;51.024;7.540;2023-04-26T15:53:38;14.60;62.30
15455;DHT22;21057;51.024;7.540;2023-04-26T15:56:12;14.60;63.90
15455;DHT22;21057;51.024;7.540;2023-04-26T15:58:41;15.20;62.90
15455;DHT22;21057;51.024;7.540;2023-04-26T16:01:10;15.50;60.60
15455;DHT22;21057;51.024;7.540;2023-04-26T16:03:43;15.90;59.30